sensor_id;sensor_type;location;lat;lon;timestamp;P1;durP1;ratioP1;P2;durP2;ratioP2
15398;SDS011;7797;51.428;6.756;2022-09-30T00:01:05;5.07;;;4.10;;
15398;SDS011;7797;51.428;6.756;2022-09-30T00:03:31;5.57;;;4.17;;
15398;SDS011;7797;51.428;6.756;2022-09-30T00:05:59;7.33;;;4.50;;
15398;SDS011;7797;51.428;6.756;2022-09-30T00:08:33;5.07;;;4.47;;
15398;SDS011;7797;51.428;6.756;2022-09-30T00:11:01;8.47;;;4.47;;
15398;SDS011;7797;51.428;6.756;2022-09-30T00:13:30;4.90;;;4.50;;
15398;SDS011;7797;51.428;6.756;2022-09-30T00:15:58;5.10;;;4.20;;
15398;SDS011;7797;51.428;6.756;2022-09-30T00:18:26;4.53;;;3.97;;
15398;SDS011;7797;51.428;6.756;2022-09-30T00:20:53;6.43;;;4.00;;
15398;SDS011;7797;51.428;6.756;2022-09-30T00:23:21;6.43;;;4.53;;
15398;SDS011;7797;51.428;6.756;2022-09-30T00:25:48;4.90;;;4.40;;
15398;SDS011;7797;51.428;6.756;2022-09-30T00:28:15;5.27;;;4.07;;
15398;SDS011;7797;51.428;6.756;2022-09-30T00:30:42;6.77;;;4.60;;
15398;SDS011;7797;51.428;6.756;2022-09-30T00:33:09;7.47;;;4.50;;
15398;SDS011;7797;51.428;6.756;2022-09-30T00:35:36;5.63;;;4.53;;
15398;SDS011;7797;51.428;6.756;2022-09-30T00:38:03;7.03;;;4.40;;
15398;SDS011;7797;51.428;6.756;2022-09-30T00:40:30;7.20;;;4.57;;
15398;SDS011;7797;51.428;6.756;2022-09-30T00:42:57;7.17;;;4.50;;
15398;SDS011;7797;51.428;6.756;2022-09-30T00:45:24;5.87;;;4.37;;
15398;SDS011;7797;51.428;6.756;2022-09-30T00:47:53;4.90;;;4.40;;
15398;SDS011;7797;51.428;6.756;2022-09-30T00:58:07;5.23;;;4.27;;
15398;SDS011;7797;51.428;6.756;2022-09-30T01:00:35;7.27;;;4.53;;
15398;SDS011;7797;51.428;6.756;2022-09-30T01:03:02;7.20;;;4.17;;
15398;SDS011;7797;51.428;6.756;2022-09-30T01:05:29;6.57;;;4.30;;
15398;SDS011;7797;51.428;6.756;2022-09-30T01:07:56;6.60;;;4.47;;
15398;SDS011;7797;51.428;6.756;2022-09-30T01:10:23;5.57;;;4.70;;
15398;SDS011;7797;51.428;6.756;2022-09-30T01:12:50;5.93;;;4.43;;
15398;SDS011;7797;51.428;6.756;2022-09-30T01:15:18;5.17;;;4.33;;
15398;SDS011;7797;51.428;6.756;2022-09-30T01:17:52;7.90;;;4.63;;
15398;SDS011;7797;51.428;6.756;2022-09-30T01:20:44;5.37;;;4.40;;
15398;SDS011;7797;51.428;6.756;2022-09-30T01:37:17;5.30;;;4.73;;
15398;SDS011;7797;51.428;6.756;2022-09-30T01:42:34;5.27;;;4.77;;
15398;SDS011;7797;51.428;6.756;2022-09-30T01:45:19;6.10;;;4.60;;
15398;SDS011;7797;51.428;6.756;2022-09-30T01:50:54;7.40;;;5.30;;
15398;SDS011;7797;51.428;6.756;2022-09-30T01:53:36;6.73;;;4.60;;
15398;SDS011;7797;51.428;6.756;2022-09-30T01:56:10;7.20;;;4.40;;
15398;SDS011;7797;51.428;6.756;2022-09-30T01:58:52;6.40;;;4.97;;
15398;SDS011;7797;51.428;6.756;2022-09-30T02:01:41;6.47;;;4.97;;
15398;SDS011;7797;51.428;6.756;2022-09-30T02:04:25;6.70;;;4.93;;
15398;SDS011;7797;51.428;6.756;2022-09-30T02:06:57;8.30;;;4.80;;
15398;SDS011;7797;51.428;6.756;2022-09-30T02:09:35;7.13;;;4.90;;
15398;SDS011;7797;51.428;6.756;2022-09-30T02:12:05;6.60;;;4.77;;
15398;SDS011;7797;51.428;6.756;2022-09-30T02:14:39;5.47;;;4.80;;
15398;SDS011;7797;51.428;6.756;2022-09-30T02:17:18;5.40;;;4.67;;
15398;SDS011;7797;51.428;6.756;2022-09-30T02:19:49;7.07;;;4.60;;
15398;SDS011;7797;51.428;6.756;2022-09-30T02:22:34;8.57;;;5.00;;
15398;SDS011;7797;51.428;6.756;2022-09-30T02:25:21;5.80;;;4.50;;
15398;SDS011;7797;51.428;6.756;2022-09-30T02:27:53;5.43;;;4.80;;
15398;SDS011;7797;51.428;6.756;2022-09-30T02:30:23;8.03;;;5.00;;
15398;SDS011;7797;51.428;6.756;2022-09-30T02:32:51;7.40;;;5.13;;
15398;SDS011;7797;51.428;6.756;2022-09-30T02:35:57;5.40;;;4.90;;
15398;SDS011;7797;51.428;6.756;2022-09-30T02:38:21;6.57;;;4.93;;
15398;SDS011;7797;51.428;6.756;2022-09-30T02:40:55;5.70;;;5.07;;
15398;SDS011;7797;51.428;6.756;2022-09-30T02:43:31;5.87;;;4.80;;
15398;SDS011;7797;51.428;6.756;2022-09-30T02:51:34;10.10;;;5.60;;
15398;SDS011;7797;51.428;6.756;2022-09-30T02:54:08;5.60;;;5.00;;
15398;SDS011;7797;51.428;6.756;2022-09-30T02:56:56;7.00;;;5.30;;
15398;SDS011;7797;51.428;6.756;2022-09-30T02:59:25;5.83;;;4.67;;
15398;SDS011;7797;51.428;6.756;2022-09-30T03:01:52;5.47;;;4.50;;
15398;SDS011;7797;51.428;6.756;2022-09-30T03:04:20;7.70;;;5.30;;
15398;SDS011;7797;51.428;6.756;2022-09-30T03:06:48;6.87;;;5.20;;
15398;SDS011;7797;51.428;6.756;2022-09-30T03:09:15;6.67;;;4.60;;
15398;SDS011;7797;51.428;6.756;2022-09-30T03:11:42;6.10;;;5.53;;
15398;SDS011;7797;51.428;6.756;2022-09-30T03:18:39;9.13;;;5.37;;
15398;SDS011;7797;51.428;6.756;2022-09-30T03:23:18;8.13;;;5.43;;
15398;SDS011;7797;51.428;6.756;2022-09-30T03:28:38;5.77;;;5.20;;
15398;SDS011;7797;51.428;6.756;2022-09-30T03:35:15;7.33;;;5.23;;
15398;SDS011;7797;51.428;6.756;2022-09-30T03:43:06;8.00;;;5.10;;
15398;SDS011;7797;51.428;6.756;2022-09-30T03:45:56;6.23;;;5.07;;
15398;SDS011;7797;51.428;6.756;2022-09-30T03:48:32;7.10;;;5.30;;
15398;SDS011;7797;51.428;6.756;2022-09-30T03:51:01;6.23;;;5.13;;
15398;SDS011;7797;51.428;6.756;2022-09-30T03:53:28;6.17;;;5.10;;
15398;SDS011;7797;51.428;6.756;2022-09-30T03:55:55;6.10;;;5.50;;
15398;SDS011;7797;51.428;6.756;2022-09-30T03:58:21;7.77;;;5.23;;
15398;SDS011;7797;51.428;6.756;2022-09-30T04:00:49;6.23;;;5.20;;
15398;SDS011;7797;51.428;6.756;2022-09-30T04:03:18;5.63;;;4.87;;
15398;SDS011;7797;51.428;6.756;2022-09-30T04:05:46;5.60;;;5.07;;
15398;SDS011;7797;51.428;6.756;2022-09-30T04:08:14;7.13;;;5.30;;
15398;SDS011;7797;51.428;6.756;2022-09-30T04:10:41;5.70;;;5.10;;
15398;SDS011;7797;51.428;6.756;2022-09-30T04:13:09;5.70;;;5.13;;
15398;SDS011;7797;51.428;6.756;2022-09-30T04:15:36;6.93;;;5.50;;
15398;SDS011;7797;51.428;6.756;2022-09-30T04:18:03;6.20;;;5.50;;
15398;SDS011;7797;51.428;6.756;2022-09-30T04:20:30;5.57;;;5.03;;
15398;SDS011;7797;51.428;6.756;2022-09-30T04:22:58;6.27;;;5.43;;
15398;SDS011;7797;51.428;6.756;2022-09-30T04:25:25;7.07;;;5.03;;
15398;SDS011;7797;51.428;6.756;2022-09-30T04:27:53;7.20;;;5.10;;
15398;SDS011;7797;51.428;6.756;2022-09-30T04:30:20;5.43;;;4.93;;
15398;SDS011;7797;51.428;6.756;2022-09-30T04:32:52;6.03;;;4.80;;
15398;SDS011;7797;51.428;6.756;2022-09-30T04:35:19;5.80;;;5.20;;
15398;SDS011;7797;51.428;6.756;2022-09-30T04:37:46;6.27;;;4.93;;
15398;SDS011;7797;51.428;6.756;2022-09-30T04:40:13;5.83;;;4.93;;
15398;SDS011;7797;51.428;6.756;2022-09-30T04:42:41;8.60;;;5.20;;
15398;SDS011;7797;51.428;6.756;2022-09-30T04:45:11;8.10;;;5.83;;
15398;SDS011;7797;51.428;6.756;2022-09-30T04:47:42;6.70;;;5.43;;
15398;SDS011;7797;51.428;6.756;2022-09-30T04:50:10;6.07;;;5.13;;
15398;SDS011;7797;51.428;6.756;2022-09-30T04:52:37;7.43;;;5.40;;
15398;SDS011;7797;51.428;6.756;2022-09-30T04:55:07;6.30;;;5.70;;
15398;SDS011;7797;51.428;6.756;2022-09-30T04:57:35;6.53;;;5.30;;
15398;SDS011;7797;51.428;6.756;2022-09-30T05:00:02;5.50;;;5.00;;
15398;SDS011;7797;51.428;6.756;2022-09-30T05:02:30;7.00;;;5.20;;
15398;SDS011;7797;51.428;6.756;2022-09-30T05:04:57;5.70;;;5.10;;
15398;SDS011;7797;51.428;6.756;2022-09-30T05:07:23;6.00;;;4.93;;
15398;SDS011;7797;51.428;6.756;2022-09-30T05:09:50;6.27;;;5.03;;
15398;SDS011;7797;51.428;6.756;2022-09-30T05:12:18;5.87;;;5.27;;
15398;SDS011;7797;51.428;6.756;2022-09-30T05:14:44;7.47;;;5.40;;
15398;SDS011;7797;51.428;6.756;2022-09-30T05:17:11;6.03;;;5.37;;
15398;SDS011;7797;51.428;6.756;2022-09-30T05:19:38;7.97;;;5.57;;
15398;SDS011;7797;51.428;6.756;2022-09-30T05:22:04;6.27;;;5.53;;
15398;SDS011;7797;51.428;6.756;2022-09-30T05:24:31;7.47;;;5.37;;
15398;SDS011;7797;51.428;6.756;2022-09-30T05:26:57;5.97;;;5.10;;
15398;SDS011;7797;51.428;6.756;2022-09-30T05:29:24;5.53;;;4.87;;
15398;SDS011;7797;51.428;6.756;2022-09-30T05:31:51;6.30;;;5.13;;
15398;SDS011;7797;51.428;6.756;2022-09-30T05:34:17;5.57;;;5.00;;
15398;SDS011;7797;51.428;6.756;2022-09-30T05:36:44;7.63;;;5.23;;
15398;SDS011;7797;51.428;6.756;2022-09-30T05:39:11;5.73;;;5.20;;
15398;SDS011;7797;51.428;6.756;2022-09-30T05:41:37;6.60;;;5.40;;
15398;SDS011;7797;51.428;6.756;2022-09-30T05:44:04;5.33;;;4.83;;
15398;SDS011;7797;51.428;6.756;2022-09-30T05:46:31;5.40;;;4.60;;
15398;SDS011;7797;51.428;6.756;2022-09-30T05:48:58;5.43;;;4.93;;
15398;SDS011;7797;51.428;6.756;2022-09-30T05:51:24;6.67;;;5.40;;
15398;SDS011;7797;51.428;6.756;2022-09-30T05:53:51;6.70;;;5.10;;
15398;SDS011;7797;51.428;6.756;2022-09-30T05:56:18;6.23;;;5.47;;
15398;SDS011;7797;51.428;6.756;2022-09-30T05:58:44;6.50;;;5.33;;
15398;SDS011;7797;51.428;6.756;2022-09-30T06:01:13;6.13;;;5.53;;
15398;SDS011;7797;51.428;6.756;2022-09-30T06:03:41;7.50;;;5.53;;
15398;SDS011;7797;51.428;6.756;2022-09-30T06:06:09;7.50;;;5.63;;
15398;SDS011;7797;51.428;6.756;2022-09-30T06:08:36;6.73;;;5.27;;
15398;SDS011;7797;51.428;6.756;2022-09-30T06:11:06;7.43;;;5.30;;
15398;SDS011;7797;51.428;6.756;2022-09-30T06:13:37;7.47;;;5.97;;
15398;SDS011;7797;51.428;6.756;2022-09-30T06:16:05;7.17;;;5.50;;
15398;SDS011;7797;51.428;6.756;2022-09-30T06:18:32;7.60;;;5.10;;
15398;SDS011;7797;51.428;6.756;2022-09-30T06:20:59;6.97;;;5.20;;
15398;SDS011;7797;51.428;6.756;2022-09-30T06:23:27;7.57;;;5.13;;
15398;SDS011;7797;51.428;6.756;2022-09-30T06:25:55;5.53;;;4.93;;
15398;SDS011;7797;51.428;6.756;2022-09-30T06:28:22;5.93;;;5.13;;
15398;SDS011;7797;51.428;6.756;2022-09-30T06:30:49;10.87;;;5.07;;
15398;SDS011;7797;51.428;6.756;2022-09-30T06:33:16;6.03;;;5.47;;
15398;SDS011;7797;51.428;6.756;2022-09-30T06:35:43;6.60;;;5.70;;
15398;SDS011;7797;51.428;6.756;2022-09-30T06:38:09;8.23;;;6.00;;
15398;SDS011;7797;51.428;6.756;2022-09-30T06:40:36;9.00;;;6.00;;
15398;SDS011;7797;51.428;6.756;2022-09-30T06:43:03;5.87;;;5.37;;
15398;SDS011;7797;51.428;6.756;2022-09-30T06:45:30;8.13;;;6.37;;
15398;SDS011;7797;51.428;6.756;2022-09-30T06:47:59;9.37;;;5.93;;
15398;SDS011;7797;51.428;6.756;2022-09-30T06:50:27;8.70;;;6.30;;
15398;SDS011;7797;51.428;6.756;2022-09-30T06:52:57;10.50;;;6.33;;
15398;SDS011;7797;51.428;6.756;2022-09-30T06:55:25;7.73;;;6.00;;
15398;SDS011;7797;51.428;6.756;2022-09-30T06:57:53;6.97;;;6.03;;
15398;SDS011;7797;51.428;6.756;2022-09-30T07:00:22;9.80;;;6.37;;
15398;SDS011;7797;51.428;6.756;2022-09-30T07:02:49;6.33;;;5.57;;
15398;SDS011;7797;51.428;6.756;2022-09-30T07:05:21;7.07;;;6.27;;
15398;SDS011;7797;51.428;6.756;2022-09-30T07:07:48;9.30;;;6.53;;
15398;SDS011;7797;51.428;6.756;2022-09-30T07:10:14;6.80;;;6.10;;
15398;SDS011;7797;51.428;6.756;2022-09-30T07:12:41;6.90;;;6.10;;
15398;SDS011;7797;51.428;6.756;2022-09-30T07:15:08;7.03;;;6.33;;
15398;SDS011;7797;51.428;6.756;2022-09-30T07:17:39;6.80;;;6.10;;
15398;SDS011;7797;51.428;6.756;2022-09-30T07:20:06;8.13;;;6.00;;
15398;SDS011;7797;51.428;6.756;2022-09-30T07:22:33;7.20;;;6.17;;
15398;SDS011;7797;51.428;6.756;2022-09-30T07:25:01;8.10;;;6.40;;
15398;SDS011;7797;51.428;6.756;2022-09-30T07:27:31;8.10;;;6.00;;
15398;SDS011;7797;51.428;6.756;2022-09-30T07:29:58;7.83;;;6.63;;
15398;SDS011;7797;51.428;6.756;2022-09-30T07:32:39;7.00;;;6.30;;
15398;SDS011;7797;51.428;6.756;2022-09-30T07:35:06;8.47;;;6.80;;
15398;SDS011;7797;51.428;6.756;2022-09-30T07:37:33;9.67;;;6.90;;
15398;SDS011;7797;51.428;6.756;2022-09-30T07:40:04;8.30;;;6.87;;
15398;SDS011;7797;51.428;6.756;2022-09-30T07:42:31;10.23;;;7.83;;
15398;SDS011;7797;51.428;6.756;2022-09-30T07:44:59;12.97;;;7.30;;
15398;SDS011;7797;51.428;6.756;2022-09-30T07:47:26;8.73;;;7.40;;
15398;SDS011;7797;51.428;6.756;2022-09-30T07:49:52;9.17;;;7.77;;
15398;SDS011;7797;51.428;6.756;2022-09-30T07:52:19;8.40;;;7.30;;
15398;SDS011;7797;51.428;6.756;2022-09-30T07:54:46;8.60;;;7.07;;
15398;SDS011;7797;51.428;6.756;2022-09-30T07:57:16;11.30;;;8.13;;
15398;SDS011;7797;51.428;6.756;2022-09-30T07:59:43;8.30;;;7.47;;
15398;SDS011;7797;51.428;6.756;2022-09-30T08:02:14;8.83;;;7.77;;
15398;SDS011;7797;51.428;6.756;2022-09-30T08:04:42;8.73;;;7.60;;
15398;SDS011;7797;51.428;6.756;2022-09-30T08:07:10;10.33;;;7.80;;
15398;SDS011;7797;51.428;6.756;2022-09-30T08:09:37;9.40;;;8.47;;
15398;SDS011;7797;51.428;6.756;2022-09-30T08:12:04;12.20;;;8.93;;
15398;SDS011;7797;51.428;6.756;2022-09-30T08:14:31;10.90;;;9.80;;
15398;SDS011;7797;51.428;6.756;2022-09-30T08:16:58;12.67;;;8.83;;
15398;SDS011;7797;51.428;6.756;2022-09-30T08:19:26;10.37;;;9.30;;
15398;SDS011;7797;51.428;6.756;2022-09-30T08:21:54;12.53;;;9.53;;
15398;SDS011;7797;51.428;6.756;2022-09-30T08:24:22;12.40;;;9.93;;
15398;SDS011;7797;51.428;6.756;2022-09-30T08:26:51;11.87;;;10.30;;
15398;SDS011;7797;51.428;6.756;2022-09-30T08:29:18;11.47;;;9.83;;
15398;SDS011;7797;51.428;6.756;2022-09-30T08:32:04;15.20;;;10.83;;
15398;SDS011;7797;51.428;6.756;2022-09-30T08:34:31;12.90;;;10.70;;
15398;SDS011;7797;51.428;6.756;2022-09-30T08:37:06;12.20;;;10.93;;
15398;SDS011;7797;51.428;6.756;2022-09-30T08:39:41;12.83;;;11.43;;
15398;SDS011;7797;51.428;6.756;2022-09-30T08:44:59;12.63;;;11.13;;
15398;SDS011;7797;51.428;6.756;2022-09-30T08:55:48;11.57;;;10.37;;
15398;SDS011;7797;51.428;6.756;2022-09-30T09:01:30;13.37;;;11.20;;
15398;SDS011;7797;51.428;6.756;2022-09-30T09:03:56;11.93;;;10.63;;
15398;SDS011;7797;51.428;6.756;2022-09-30T09:08:52;15.60;;;11.20;;
15398;SDS011;7797;51.428;6.756;2022-09-30T09:19:42;17.43;;;12.00;;
15398;SDS011;7797;51.428;6.756;2022-09-30T09:22:13;14.63;;;11.87;;
15398;SDS011;7797;51.428;6.756;2022-09-30T09:24:41;19.10;;;12.20;;
15398;SDS011;7797;51.428;6.756;2022-09-30T09:27:22;14.57;;;11.70;;
15398;SDS011;7797;51.428;6.756;2022-09-30T09:29:55;15.90;;;12.80;;
15398;SDS011;7797;51.428;6.756;2022-09-30T09:32:27;16.80;;;13.77;;
15398;SDS011;7797;51.428;6.756;2022-09-30T09:35:00;18.20;;;15.63;;
15398;SDS011;7797;51.428;6.756;2022-09-30T09:37:35;18.03;;;13.70;;
15398;SDS011;7797;51.428;6.756;2022-09-30T09:48:41;15.00;;;13.43;;
15398;SDS011;7797;51.428;6.756;2022-09-30T09:51:27;21.97;;;14.47;;
15398;SDS011;7797;51.428;6.756;2022-09-30T09:53:59;19.27;;;14.40;;
15398;SDS011;7797;51.428;6.756;2022-09-30T09:56:30;18.10;;;14.00;;
15398;SDS011;7797;51.428;6.756;2022-09-30T10:01:48;19.87;;;14.60;;
15398;SDS011;7797;51.428;6.756;2022-09-30T10:04:24;17.20;;;14.30;;
15398;SDS011;7797;51.428;6.756;2022-09-30T10:06:54;17.23;;;14.37;;
15398;SDS011;7797;51.428;6.756;2022-09-30T10:14:37;20.37;;;16.43;;
15398;SDS011;7797;51.428;6.756;2022-09-30T10:17:31;23.87;;;16.83;;
15398;SDS011;7797;51.428;6.756;2022-09-30T10:20:07;20.03;;;16.00;;
15398;SDS011;7797;51.428;6.756;2022-09-30T10:22:45;21.70;;;14.77;;
15398;SDS011;7797;51.428;6.756;2022-09-30T10:27:47;19.23;;;14.83;;
15398;SDS011;7797;51.428;6.756;2022-09-30T10:30:36;18.90;;;14.23;;
15398;SDS011;7797;51.428;6.756;2022-09-30T10:33:11;15.83;;;14.10;;
15398;SDS011;7797;51.428;6.756;2022-09-30T10:38:25;18.63;;;14.37;;
15398;SDS011;7797;51.428;6.756;2022-09-30T10:40:55;19.77;;;13.53;;
15398;SDS011;7797;51.428;6.756;2022-09-30T10:43:36;18.23;;;13.70;;
15398;SDS011;7797;51.428;6.756;2022-09-30T10:46:08;17.83;;;12.43;;
15398;SDS011;7797;51.428;6.756;2022-09-30T10:48:53;14.40;;;11.63;;
15398;SDS011;7797;51.428;6.756;2022-09-30T10:51:22;12.00;;;10.70;;
15398;SDS011;7797;51.428;6.756;2022-09-30T10:53:51;12.70;;;10.53;;
15398;SDS011;7797;51.428;6.756;2022-09-30T10:57:01;14.33;;;11.67;;
15398;SDS011;7797;51.428;6.756;2022-09-30T10:59:28;13.57;;;11.20;;
15398;SDS011;7797;51.428;6.756;2022-09-30T11:02:04;14.57;;;11.67;;
15398;SDS011;7797;51.428;6.756;2022-09-30T11:04:57;10.83;;;9.73;;
15398;SDS011;7797;51.428;6.756;2022-09-30T11:07:52;10.57;;;9.37;;
15398;SDS011;7797;51.428;6.756;2022-09-30T11:10:35;12.80;;;10.17;;
15398;SDS011;7797;51.428;6.756;2022-09-30T11:13:16;11.77;;;9.80;;
15398;SDS011;7797;51.428;6.756;2022-09-30T11:15:55;11.73;;;9.30;;
15398;SDS011;7797;51.428;6.756;2022-09-30T11:18:40;10.80;;;9.73;;
15398;SDS011;7797;51.428;6.756;2022-09-30T11:21:11;12.47;;;9.73;;
15398;SDS011;7797;51.428;6.756;2022-09-30T11:23:43;12.43;;;10.07;;
15398;SDS011;7797;51.428;6.756;2022-09-30T11:26:18;10.03;;;8.97;;
15398;SDS011;7797;51.428;6.756;2022-09-30T11:29:01;11.40;;;9.40;;
15398;SDS011;7797;51.428;6.756;2022-09-30T11:31:57;9.77;;;8.87;;
15398;SDS011;7797;51.428;6.756;2022-09-30T11:34:39;11.50;;;10.00;;
15398;SDS011;7797;51.428;6.756;2022-09-30T11:37:27;10.03;;;9.00;;
15398;SDS011;7797;51.428;6.756;2022-09-30T11:45:44;11.63;;;9.20;;
15398;SDS011;7797;51.428;6.756;2022-09-30T11:59:28;10.20;;;7.73;;
15398;SDS011;7797;51.428;6.756;2022-09-30T12:02:02;8.60;;;7.43;;
15398;SDS011;7797;51.428;6.756;2022-09-30T12:04:31;7.63;;;6.90;;
15398;SDS011;7797;51.428;6.756;2022-09-30T12:07:14;7.17;;;6.47;;
15398;SDS011;7797;51.428;6.756;2022-09-30T12:09:47;8.50;;;7.10;;
15398;SDS011;7797;51.428;6.756;2022-09-30T12:12:17;6.27;;;5.67;;
15398;SDS011;7797;51.428;6.756;2022-09-30T12:14:57;7.23;;;6.43;;
15398;SDS011;7797;51.428;6.756;2022-09-30T12:19:57;11.00;;;6.73;;
15398;SDS011;7797;51.428;6.756;2022-09-30T12:22:29;6.77;;;6.10;;
15398;SDS011;7797;51.428;6.756;2022-09-30T12:25:10;7.53;;;5.60;;
15398;SDS011;7797;51.428;6.756;2022-09-30T12:27:41;6.63;;;5.07;;
15398;SDS011;7797;51.428;6.756;2022-09-30T12:30:15;6.33;;;5.73;;
15398;SDS011;7797;51.428;6.756;2022-09-30T12:41:06;5.73;;;5.07;;
15398;SDS011;7797;51.428;6.756;2022-09-30T12:49:11;6.17;;;5.37;;
15398;SDS011;7797;51.428;6.756;2022-09-30T12:51:43;5.23;;;4.80;;
15398;SDS011;7797;51.428;6.756;2022-09-30T12:54:20;5.40;;;4.77;;
15398;SDS011;7797;51.428;6.756;2022-09-30T12:56:57;4.73;;;4.20;;
15398;SDS011;7797;51.428;6.756;2022-09-30T12:59:27;4.67;;;4.23;;
15398;SDS011;7797;51.428;6.756;2022-09-30T13:01:56;4.20;;;3.80;;
15398;SDS011;7797;51.428;6.756;2022-09-30T13:12:25;4.47;;;4.03;;
15398;SDS011;7797;51.428;6.756;2022-09-30T13:31:26;5.47;;;4.07;;
15398;SDS011;7797;51.428;6.756;2022-09-30T13:39:06;3.73;;;3.43;;
15398;SDS011;7797;51.428;6.756;2022-09-30T13:41:46;3.90;;;3.60;;
15398;SDS011;7797;51.428;6.756;2022-09-30T13:44:18;4.80;;;4.30;;
15398;SDS011;7797;51.428;6.756;2022-09-30T13:46:49;5.20;;;4.80;;
15398;SDS011;7797;51.428;6.756;2022-09-30T13:51:43;5.30;;;4.80;;
15398;SDS011;7797;51.428;6.756;2022-09-30T13:56:57;5.40;;;4.20;;
15398;SDS011;7797;51.428;6.756;2022-09-30T13:59:34;4.30;;;3.90;;
15398;SDS011;7797;51.428;6.756;2022-09-30T14:10:26;6.07;;;4.53;;
15398;SDS011;7797;51.428;6.756;2022-09-30T14:21:20;7.00;;;5.60;;
15398;SDS011;7797;51.428;6.756;2022-09-30T14:23:56;8.57;;;6.23;;
15398;SDS011;7797;51.428;6.756;2022-09-30T14:31:50;4.37;;;3.93;;
15398;SDS011;7797;51.428;6.756;2022-09-30T14:34:17;3.97;;;3.67;;
15398;SDS011;7797;51.428;6.756;2022-09-30T14:36:47;3.70;;;3.40;;
15398;SDS011;7797;51.428;6.756;2022-09-30T14:39:18;4.37;;;3.97;;
15398;SDS011;7797;51.428;6.756;2022-09-30T14:41:48;4.43;;;4.10;;
15398;SDS011;7797;51.428;6.756;2022-09-30T14:44:18;4.20;;;3.80;;
15398;SDS011;7797;51.428;6.756;2022-09-30T14:46:51;4.03;;;3.80;;
15398;SDS011;7797;51.428;6.756;2022-09-30T14:49:26;3.87;;;3.60;;
15398;SDS011;7797;51.428;6.756;2022-09-30T14:52:01;5.00;;;4.13;;
15398;SDS011;7797;51.428;6.756;2022-09-30T14:54:29;3.87;;;3.57;;
15398;SDS011;7797;51.428;6.756;2022-09-30T14:57:14;4.90;;;4.00;;
15398;SDS011;7797;51.428;6.756;2022-09-30T14:59:43;5.07;;;4.47;;
15398;SDS011;7797;51.428;6.756;2022-09-30T15:02:19;4.47;;;4.10;;
15398;SDS011;7797;51.428;6.756;2022-09-30T15:04:49;3.93;;;3.63;;
15398;SDS011;7797;51.428;6.756;2022-09-30T15:07:17;4.40;;;4.00;;
15398;SDS011;7797;51.428;6.756;2022-09-30T15:09:45;4.00;;;3.70;;
15398;SDS011;7797;51.428;6.756;2022-09-30T15:12:14;4.20;;;3.90;;
15398;SDS011;7797;51.428;6.756;2022-09-30T15:14:46;4.83;;;4.10;;
15398;SDS011;7797;51.428;6.756;2022-09-30T15:17:21;4.30;;;3.90;;
15398;SDS011;7797;51.428;6.756;2022-09-30T15:19:50;4.00;;;3.60;;
15398;SDS011;7797;51.428;6.756;2022-09-30T15:22:22;4.00;;;3.60;;
15398;SDS011;7797;51.428;6.756;2022-09-30T15:24:51;3.73;;;3.40;;
15398;SDS011;7797;51.428;6.756;2022-09-30T15:27:28;3.77;;;3.30;;
15398;SDS011;7797;51.428;6.756;2022-09-30T15:29:59;4.63;;;3.80;;
15398;SDS011;7797;51.428;6.756;2022-09-30T15:32:27;3.47;;;3.17;;
15398;SDS011;7797;51.428;6.756;2022-09-30T15:34:56;4.30;;;3.20;;
15398;SDS011;7797;51.428;6.756;2022-09-30T15:37:24;3.07;;;2.87;;
15398;SDS011;7797;51.428;6.756;2022-09-30T15:39:59;2.73;;;2.53;;
15398;SDS011;7797;51.428;6.756;2022-09-30T15:42:52;4.40;;;2.93;;
15398;SDS011;7797;51.428;6.756;2022-09-30T15:45:30;3.87;;;2.73;;
15398;SDS011;7797;51.428;6.756;2022-09-30T15:48:05;3.03;;;2.70;;
15398;SDS011;7797;51.428;6.756;2022-09-30T15:50:43;2.73;;;2.50;;
15398;SDS011;7797;51.428;6.756;2022-09-30T15:53:21;2.50;;;2.30;;
15398;SDS011;7797;51.428;6.756;2022-09-30T15:56:37;2.00;;;1.90;;
15398;SDS011;7797;51.428;6.756;2022-09-30T16:01:48;2.80;;;2.50;;
15398;SDS011;7797;51.428;6.756;2022-09-30T16:09:39;4.67;;;2.63;;
15398;SDS011;7797;51.428;6.756;2022-09-30T16:12:08;3.00;;;2.17;;
15398;SDS011;7797;51.428;6.756;2022-09-30T16:14:40;3.43;;;2.20;;
15398;SDS011;7797;51.428;6.756;2022-09-30T16:20:03;2.93;;;2.33;;
15398;SDS011;7797;51.428;6.756;2022-09-30T16:28:09;3.03;;;2.73;;
15398;SDS011;7797;51.428;6.756;2022-09-30T16:30:48;3.53;;;3.17;;
15398;SDS011;7797;51.428;6.756;2022-09-30T16:33:16;4.83;;;3.50;;
15398;SDS011;7797;51.428;6.756;2022-09-30T16:35:43;4.53;;;3.40;;
15398;SDS011;7797;51.428;6.756;2022-09-30T16:38:13;5.30;;;4.03;;
15398;SDS011;7797;51.428;6.756;2022-09-30T16:40:41;5.90;;;4.30;;
15398;SDS011;7797;51.428;6.756;2022-09-30T16:43:08;5.53;;;4.20;;
15398;SDS011;7797;51.428;6.756;2022-09-30T16:45:37;3.20;;;2.80;;
15398;SDS011;7797;51.428;6.756;2022-09-30T16:48:15;4.47;;;2.60;;
15398;SDS011;7797;51.428;6.756;2022-09-30T16:50:45;4.23;;;2.50;;
15398;SDS011;7797;51.428;6.756;2022-09-30T16:53:15;2.70;;;2.13;;
15398;SDS011;7797;51.428;6.756;2022-09-30T16:55:41;2.53;;;2.00;;
15398;SDS011;7797;51.428;6.756;2022-09-30T16:58:13;4.60;;;2.20;;
15398;SDS011;7797;51.428;6.756;2022-09-30T17:00:40;3.00;;;2.70;;
15398;SDS011;7797;51.428;6.756;2022-09-30T17:03:10;3.20;;;2.63;;
15398;SDS011;7797;51.428;6.756;2022-09-30T17:05:42;4.37;;;2.70;;
15398;SDS011;7797;51.428;6.756;2022-09-30T17:08:14;3.83;;;2.67;;
15398;SDS011;7797;51.428;6.756;2022-09-30T17:10:42;4.07;;;3.20;;
15398;SDS011;7797;51.428;6.756;2022-09-30T17:13:17;4.30;;;3.43;;
15398;SDS011;7797;51.428;6.756;2022-09-30T17:15:50;4.10;;;3.53;;
15398;SDS011;7797;51.428;6.756;2022-09-30T17:18:18;6.10;;;3.80;;
15398;SDS011;7797;51.428;6.756;2022-09-30T17:20:45;5.83;;;4.23;;
15398;SDS011;7797;51.428;6.756;2022-09-30T17:23:19;3.67;;;3.37;;
15398;SDS011;7797;51.428;6.756;2022-09-30T17:25:46;3.53;;;3.20;;
15398;SDS011;7797;51.428;6.756;2022-09-30T17:28:14;5.63;;;2.97;;
15398;SDS011;7797;51.428;6.756;2022-09-30T17:30:42;3.20;;;3.00;;
15398;SDS011;7797;51.428;6.756;2022-09-30T17:33:10;3.00;;;2.80;;
15398;SDS011;7797;51.428;6.756;2022-09-30T17:35:37;3.03;;;2.60;;
15398;SDS011;7797;51.428;6.756;2022-09-30T17:38:06;3.77;;;3.00;;
15398;SDS011;7797;51.428;6.756;2022-09-30T17:40:34;3.80;;;3.33;;
15398;SDS011;7797;51.428;6.756;2022-09-30T17:43:19;4.10;;;3.33;;
15398;SDS011;7797;51.428;6.756;2022-09-30T17:45:48;4.67;;;3.13;;
15398;SDS011;7797;51.428;6.756;2022-09-30T17:48:16;6.23;;;3.33;;
15398;SDS011;7797;51.428;6.756;2022-09-30T17:50:49;3.70;;;3.40;;
15398;SDS011;7797;51.428;6.756;2022-09-30T17:53:18;5.17;;;3.10;;
15398;SDS011;7797;51.428;6.756;2022-09-30T17:55:45;5.70;;;3.30;;
15398;SDS011;7797;51.428;6.756;2022-09-30T17:58:16;5.63;;;3.10;;
15398;SDS011;7797;51.428;6.756;2022-09-30T18:00:43;4.00;;;3.60;;
15398;SDS011;7797;51.428;6.756;2022-09-30T18:03:12;4.70;;;3.10;;
15398;SDS011;7797;51.428;6.756;2022-09-30T18:05:39;3.47;;;3.17;;
15398;SDS011;7797;51.428;6.756;2022-09-30T18:08:12;6.47;;;4.70;;
15398;SDS011;7797;51.428;6.756;2022-09-30T18:10:38;9.03;;;6.20;;
15398;SDS011;7797;51.428;6.756;2022-09-30T18:13:05;8.70;;;5.53;;
15398;SDS011;7797;51.428;6.756;2022-09-30T18:15:32;8.83;;;5.60;;
15398;SDS011;7797;51.428;6.756;2022-09-30T18:18:02;7.77;;;5.10;;
15398;SDS011;7797;51.428;6.756;2022-09-30T18:20:28;6.53;;;5.13;;
15398;SDS011;7797;51.428;6.756;2022-09-30T18:22:55;6.07;;;4.90;;
15398;SDS011;7797;51.428;6.756;2022-09-30T18:25:22;7.03;;;5.20;;
15398;SDS011;7797;51.428;6.756;2022-09-30T18:27:51;7.80;;;5.70;;
15398;SDS011;7797;51.428;6.756;2022-09-30T18:30:19;10.57;;;6.07;;
15398;SDS011;7797;51.428;6.756;2022-09-30T18:32:47;11.33;;;6.37;;
15398;SDS011;7797;51.428;6.756;2022-09-30T18:35:15;7.80;;;5.30;;
15398;SDS011;7797;51.428;6.756;2022-09-30T18:37:45;4.90;;;4.00;;
15398;SDS011;7797;51.428;6.756;2022-09-30T18:40:19;6.97;;;4.30;;
15398;SDS011;7797;51.428;6.756;2022-09-30T18:42:47;6.20;;;4.10;;
15398;SDS011;7797;51.428;6.756;2022-09-30T18:45:14;5.10;;;4.03;;
15398;SDS011;7797;51.428;6.756;2022-09-30T18:47:41;4.40;;;3.60;;